sensor_id;sensor_type;location;lat;lon;timestamp;pressure;altitude;pressure_sealevel;temperature;humidity
22018;BME280;11173;51.050;7.108;2023-08-31T00:03:47;98814.03;;;11.96;78.08
22018;BME280;11173;51.050;7.108;2023-08-31T00:13:47;98817.88;;;12.24;78.65
22018;BME280;11173;51.050;7.108;2023-08-31T00:23:48;98803.47;;;12.47;78.58
22018;BME280;11173;51.050;7.108;2023-08-31T00:33:48;98794.97;;;12.51;75.94
22018;BME280;11173;51.050;7.108;2023-08-31T00:43:49;98806.72;;;12.24;74.94
22018;BME280;11173;51.050;7.108;2023-08-31T00:53:51;98814.91;;;12.05;76.28
22018;BME280;11173;51.050;7.108;2023-08-31T01:14:28;98812.81;;;11.97;75.96
22018;BME280;11173;51.050;7.108;2023-08-31T01:24:31;98820.66;;;11.89;76.64
22018;BME280;11173;51.050;7.108;2023-08-31T01:34:32;98809.16;;;11.87;76.15
22018;BME280;11173;51.050;7.108;2023-08-31T01:44:34;98819.56;;;11.73;74.61
22018;BME280;11173;51.050;7.108;2023-08-31T01:54:35;98832.38;;;11.45;73.82
22018;BME280;11173;51.050;7.108;2023-08-31T02:04:37;98831.84;;;11.25;74.92
22018;BME280;11173;51.050;7.108;2023-08-31T02:14:38;98836.50;;;11.15;75.22
22018;BME280;11173;51.050;7.108;2023-08-31T02:24:38;98845.53;;;11.06;75.00
22018;BME280;11173;51.050;7.108;2023-08-31T02:34:39;98842.06;;;11.02;75.92
22018;BME280;11173;51.050;7.108;2023-08-31T02:44:39;98843.72;;;11.00;75.09
22018;BME280;11173;51.050;7.108;2023-08-31T02:54:40;98842.38;;;10.91;76.65
22018;BME280;11173;51.050;7.108;2023-08-31T03:04:40;98850.88;;;11.13;78.52
22018;BME280;11173;51.050;7.108;2023-08-31T03:14:40;98850.38;;;11.44;78.97
22018;BME280;11173;51.050;7.108;2023-08-31T03:24:41;98851.94;;;11.71;78.24
22018;BME280;11173;51.050;7.108;2023-08-31T03:34:41;98850.34;;;11.83;77.62
22018;BME280;11173;51.050;7.108;2023-08-31T03:44:41;98841.19;;;11.95;78.18
22018;BME280;11173;51.050;7.108;2023-08-31T03:54:42;98858.31;;;12.19;78.55
22018;BME280;11173;51.050;7.108;2023-08-31T04:04:42;98858.47;;;12.38;78.58
22018;BME280;11173;51.050;7.108;2023-08-31T04:14:43;98864.91;;;12.47;78.07
22018;BME280;11173;51.050;7.108;2023-08-31T04:24:43;98867.78;;;12.57;77.93
22018;BME280;11173;51.050;7.108;2023-08-31T04:34:44;98870.69;;;12.66;77.70
22018;BME280;11173;51.050;7.108;2023-08-31T04:44:44;98885.63;;;12.72;77.24
22018;BME280;11173;51.050;7.108;2023-08-31T04:54:45;98900.44;;;12.60;76.70
22018;BME280;11173;51.050;7.108;2023-08-31T05:04:46;98908.72;;;12.50;77.68
22018;BME280;11173;51.050;7.108;2023-08-31T05:14:46;98911.84;;;12.52;77.83
22018;BME280;11173;51.050;7.108;2023-08-31T05:24:46;98928.59;;;12.52;77.44
22018;BME280;11173;51.050;7.108;2023-08-31T05:34:47;98947.94;;;12.47;77.30
22018;BME280;11173;51.050;7.108;2023-08-31T05:44:47;98952.53;;;12.41;77.80
22018;BME280;11173;51.050;7.108;2023-08-31T05:54:47;98959.50;;;12.36;77.12
22018;BME280;11173;51.050;7.108;2023-08-31T06:04:48;98961.94;;;12.21;77.68
22018;BME280;11173;51.050;7.108;2023-08-31T06:14:48;98968.00;;;12.20;78.00
22018;BME280;11173;51.050;7.108;2023-08-31T06:24:49;98985.44;;;12.24;78.86
22018;BME280;11173;51.050;7.108;2023-08-31T06:34:49;99000.69;;;12.45;79.55
22018;BME280;11173;51.050;7.108;2023-08-31T06:44:49;98988.94;;;12.63;78.20
22018;BME280;11173;51.050;7.108;2023-08-31T06:54:50;98997.63;;;12.65;78.19
22018;BME280;11173;51.050;7.108;2023-08-31T07:04:50;98991.16;;;12.68;78.42
22018;BME280;11173;51.050;7.108;2023-08-31T07:14:52;99003.09;;;12.81;78.36
22018;BME280;11173;51.050;7.108;2023-08-31T07:24:52;98998.81;;;12.89;78.84
22018;BME280;11173;51.050;7.108;2023-08-31T07:34:53;99020.13;;;13.31;80.83
22018;BME280;11173;51.050;7.108;2023-08-31T07:44:53;99011.53;;;13.91;80.59
22018;BME280;11173;51.050;7.108;2023-08-31T07:54:53;99027.06;;;14.24;78.01
22018;BME280;11173;51.050;7.108;2023-08-31T08:04:54;99027.91;;;14.43;78.10
22018;BME280;11173;51.050;7.108;2023-08-31T08:14:54;99045.09;;;14.72;77.07
22018;BME280;11173;51.050;7.108;2023-08-31T08:24:54;99044.66;;;14.74;75.86
22018;BME280;11173;51.050;7.108;2023-08-31T08:34:55;99051.66;;;14.79;75.84
22018;BME280;11173;51.050;7.108;2023-08-31T08:45:00;99055.31;;;15.07;76.24
22018;BME280;11173;51.050;7.108;2023-08-31T08:55:01;99059.69;;;15.26;73.81
22018;BME280;11173;51.050;7.108;2023-08-31T09:05:03;99061.88;;;15.31;73.34
22018;BME280;11173;51.050;7.108;2023-08-31T09:15:04;99068.41;;;15.47;74.39
22018;BME280;11173;51.050;7.108;2023-08-31T09:25:05;99068.25;;;15.87;73.94
22018;BME280;11173;51.050;7.108;2023-08-31T09:35:08;99068.69;;;16.38;71.76
22018;BME280;11173;51.050;7.108;2023-08-31T09:45:09;99060.22;;;16.80;70.77
22018;BME280;11173;51.050;7.108;2023-08-31T09:55:09;99075.16;;;17.35;65.71
22018;BME280;11173;51.050;7.108;2023-08-31T10:05:11;99074.34;;;17.58;61.53
22018;BME280;11173;51.050;7.108;2023-08-31T10:15:12;99084.50;;;17.80;63.47
22018;BME280;11173;51.050;7.108;2023-08-31T10:25:13;99077.50;;;18.20;60.22
22018;BME280;11173;51.050;7.108;2023-08-31T10:35:13;99071.63;;;18.38;58.61
22018;BME280;11173;51.050;7.108;2023-08-31T10:45:13;99081.19;;;18.26;58.27
22018;BME280;11173;51.050;7.108;2023-08-31T10:55:14;99087.72;;;17.87;59.58
22018;BME280;11173;51.050;7.108;2023-08-31T11:05:16;99082.44;;;17.80;60.69
22018;BME280;11173;51.050;7.108;2023-08-31T11:15:18;99072.25;;;17.98;60.16
22018;BME280;11173;51.050;7.108;2023-08-31T11:25:19;99064.06;;;18.15;57.17
22018;BME280;11173;51.050;7.108;2023-08-31T11:35:21;99056.19;;;18.19;59.78
22018;BME280;11173;51.050;7.108;2023-08-31T11:45:22;99045.59;;;18.28;59.63
22018;BME280;11173;51.050;7.108;2023-08-31T11:55:24;99055.66;;;18.65;59.95
22018;BME280;11173;51.050;7.108;2023-08-31T12:05:25;99043.41;;;19.09;56.42
22018;BME280;11173;51.050;7.108;2023-08-31T12:15:31;99048.19;;;19.23;56.05
22018;BME280;11173;51.050;7.108;2023-08-31T12:25:32;99046.94;;;19.45;59.92
22018;BME280;11173;51.050;7.108;2023-08-31T12:35:32;99050.69;;;20.15;59.02
22018;BME280;11173;51.050;7.108;2023-08-31T12:45:33;99046.59;;;20.91;58.13
22018;BME280;11173;51.050;7.108;2023-08-31T12:55:33;99040.81;;;21.22;57.54
22018;BME280;11173;51.050;7.108;2023-08-31T13:05:33;99059.75;;;20.99;56.83
22018;BME280;11173;51.050;7.108;2023-08-31T13:15:34;99061.50;;;20.16;54.80
22018;BME280;11173;51.050;7.108;2023-08-31T13:25:35;99052.59;;;19.24;55.08
22018;BME280;11173;51.050;7.108;2023-08-31T13:35:36;99033.22;;;18.76;54.65
22018;BME280;11173;51.050;7.108;2023-08-31T13:45:36;99052.00;;;18.59;53.77
22018;BME280;11173;51.050;7.108;2023-08-31T13:55:36;99058.53;;;18.35;55.29
22018;BME280;11173;51.050;7.108;2023-08-31T14:05:37;99061.63;;;18.37;56.66
22018;BME280;11173;51.050;7.108;2023-08-31T14:15:37;99051.00;;;18.62;55.68
22018;BME280;11173;51.050;7.108;2023-08-31T14:25:44;99035.56;;;18.78;51.40
22018;BME280;11173;51.050;7.108;2023-08-31T14:35:44;99042.50;;;18.77;51.96
22018;BME280;11173;51.050;7.108;2023-08-31T14:45:44;99053.47;;;18.75;52.67
22018;BME280;11173;51.050;7.108;2023-08-31T14:55:51;99058.91;;;18.78;53.99
22018;BME280;11173;51.050;7.108;2023-08-31T15:05:52;99061.97;;;18.95;52.79
22018;BME280;11173;51.050;7.108;2023-08-31T15:15:52;99061.88;;;18.90;53.06
22018;BME280;11173;51.050;7.108;2023-08-31T15:25:58;99081.00;;;19.00;52.66
22018;BME280;11173;51.050;7.108;2023-08-31T15:36:06;99084.06;;;19.17;52.15
22018;BME280;11173;51.050;7.108;2023-08-31T15:46:07;99083.22;;;19.11;51.49
22018;BME280;11173;51.050;7.108;2023-08-31T15:56:08;99081.28;;;18.82;51.76
22018;BME280;11173;51.050;7.108;2023-08-31T16:06:08;99094.50;;;18.55;53.95
22018;BME280;11173;51.050;7.108;2023-08-31T16:16:09;99075.59;;;18.61;51.49
22018;BME280;11173;51.050;7.108;2023-08-31T16:26:09;99077.28;;;18.53;54.39
22018;BME280;11173;51.050;7.108;2023-08-31T16:36:10;99077.28;;;18.38;55.61
22018;BME280;11173;51.050;7.108;2023-08-31T16:46:10;99085.09;;;18.43;54.54
22018;BME280;11173;51.050;7.108;2023-08-31T16:56:10;99088.06;;;18.55;52.52
22018;BME280;11173;51.050;7.108;2023-08-31T17:06:12;99097.59;;;18.57;53.42
22018;BME280;11173;51.050;7.108;2023-08-31T17:16:12;99090.81;;;18.49;54.02
22018;BME280;11173;51.050;7.108;2023-08-31T17:26:24;99099.34;;;18.40;54.66
22018;BME280;11173;51.050;7.108;2023-08-31T17:36:24;99110.56;;;18.19;54.76
22018;BME280;11173;51.050;7.108;2023-08-31T17:46:26;99113.25;;;17.84;56.09
22018;BME280;11173;51.050;7.108;2023-08-31T17:56:27;99127.50;;;17.65;56.74
22018;BME280;11173;51.050;7.108;2023-08-31T18:06:27;99128.94;;;17.37;57.41
22018;BME280;11173;51.050;7.108;2023-08-31T18:16:27;99134.81;;;17.00;57.45
22018;BME280;11173;51.050;7.108;2023-08-31T18:26:28;99157.16;;;16.61;58.73
22018;BME280;11173;51.050;7.108;2023-08-31T18:36:31;99155.69;;;16.32;59.56
22018;BME280;11173;51.050;7.108;2023-08-31T18:46:31;99166.06;;;16.07;60.04
22018;BME280;11173;51.050;7.108;2023-08-31T18:56:35;99170.75;;;15.92;60.86
22018;BME280;11173;51.050;7.108;2023-08-31T19:06:36;99179.34;;;15.79;60.59
22018;BME280;11173;51.050;7.108;2023-08-31T19:16:36;99184.28;;;15.57;60.81
22018;BME280;11173;51.050;7.108;2023-08-31T19:26:38;99196.69;;;15.19;61.27
22018;BME280;11173;51.050;7.108;2023-08-31T19:36:41;99198.44;;;14.85;61.43
22018;BME280;11173;51.050;7.108;2023-08-31T19:46:41;99194.34;;;14.45;61.87
22018;BME280;11173;51.050;7.108;2023-08-31T19:56:42;99206.22;;;14.05;62.34
22018;BME280;11173;51.050;7.108;2023-08-31T20:06:43;99199.13;;;13.79;63.05
22018;BME280;11173;51.050;7.108;2023-08-31T20:16:43;99202.56;;;13.61;63.91
22018;BME280;11173;51.050;7.108;2023-08-31T20:26:44;99223.72;;;13.49;63.69
22018;BME280;11173;51.050;7.108;2023-08-31T20:36:46;99211.13;;;13.31;64.04
22018;BME280;11173;51.050;7.108;2023-08-31T20:46:47;99204.56;;;13.12;64.16
22018;BME280;11173;51.050;7.108;2023-08-31T20:56:48;99206.59;;;12.86;64.30
22018;BME280;11173;51.050;7.108;2023-08-31T21:06:48;99199.41;;;12.60;64.58
22018;BME280;11173;51.050;7.108;2023-08-31T21:16:49;99196.91;;;12.36;64.60
22018;BME280;11173;51.050;7.108;2023-08-31T21:26:50;99191.16;;;12.14;65.08
22018;BME280;11173;51.050;7.108;2023-08-31T21:36:50;99196.22;;;11.90;65.56
22018;BME280;11173;51.050;7.108;2023-08-31T21:46:51;99199.16;;;11.70;66.16
22018;BME280;11173;51.050;7.108;2023-08-31T21:56:51;99185.50;;;11.55;70.11
22018;BME280;11173;51.050;7.108;2023-08-31T22:06:51;99190.81;;;11.83;70.25
22018;BME280;11173;51.050;7.108;2023-08-31T22:16:52;99190.91;;;12.08;69.29
22018;BME280;11173;51.050;7.108;2023-08-31T22:26:55;99191.16;;;12.27;69.11
22018;BME280;11173;51.050;7.108;2023-08-31T22:36:55;99188.53;;;12.49;69.13
22018;BME280;11173;51.050;7.108;2023-08-31T22:46:55;99183.22;;;12.80;68.48
22018;BME280;11173;51.050;7.108;2023-08-31T22:56:56;99179.75;;;13.02;66.87
22018;BME280;11173;51.050;7.108;2023-08-31T23:06:56;99184.44;;;13.05;67.25
22018;BME280;11173;51.050;7.108;2023-08-31T23:16:57;99197.94;;;13.19;67.27
22018;BME280;11173;51.050;7.108;2023-08-31T23:26:58;99197.91;;;13.45;66.91
22018;BME280;11173;51.050;7.108;2023-08-31T23:36:58;99186.53;;;13.61;66.86
22018;BME280;11173;51.050;7.108;2023-08-31T23:46:59;99177.78;;;13.72;66.71
22018;BME280;11173;51.050;7.108;2023-08-31T23:56:59;99155.91;;;13.80;66.60
